Terminal Aerodrome Forecast
Issued by NWS Chicago, IL

Home | Current Version | Previous Version | Graphics & Text | Print | Product List | Glossary On
Versions: 1 2 3 4 5 6 7 8 9 10 11 12 13 14 15 16 17 18 19 20 21 22 23 24 25 26 27 28 29 30 31 32 33 34 35 36 37 38 39
000
FTUS43 KLOT 041135
TAFRFD
TAF
KRFD 041135Z 0412/0512 25006KT 6SM BR VCSH SCT015 OVC120
     FM041300 33007KT 5SM BR BKN010 OVC120
     FM041600 01009KT P6SM SCT025 BKN200
     FM041900 04009KT P6SM SCT035 BKN200
     FM050000 07009KT P6SM VCSH OVC050
     FM050300 07011KT 4SM -SHRA VCTS OVC025CB PROB30 0505/0509 3SM
      TSRA OVC015CB=

USA.gov is the U.S. government's official web portal to all federal, state and local government web resources and services.